sensor_id;sensor_type;location;lat;lon;timestamp;pressure;altitude;pressure_sealevel;temperature;humidity
46598;BME280;32318;48.858;8.252;2024-03-25T00:02:42;99646.16;;;6.15;78.21
46598;BME280;32318;48.858;8.252;2024-03-25T00:10:42;99652.44;;;6.14;78.45
46598;BME280;32318;48.858;8.252;2024-03-25T00:18:43;99653.59;;;6.11;78.60
46598;BME280;32318;48.858;8.252;2024-03-25T00:26:43;99640.19;;;6.12;78.41
46598;BME280;32318;48.858;8.252;2024-03-25T00:34:43;99645.47;;;6.12;78.09
46598;BME280;32318;48.858;8.252;2024-03-25T00:42:43;99639.78;;;6.07;78.70
46598;BME280;32318;48.858;8.252;2024-03-25T00:50:44;99639.13;;;6.05;78.43
46598;BME280;32318;48.858;8.252;2024-03-25T00:58:44;99656.97;;;6.03;78.98
46598;BME280;32318;48.858;8.252;2024-03-25T01:06:46;99643.03;;;6.01;79.03
46598;BME280;32318;48.858;8.252;2024-03-25T01:14:46;99644.00;;;6.00;78.50
46598;BME280;32318;48.858;8.252;2024-03-25T01:22:47;99640.09;;;5.94;78.95
46598;BME280;32318;48.858;8.252;2024-03-25T01:30:47;99636.34;;;5.97;79.17
46598;BME280;32318;48.858;8.252;2024-03-25T01:38:49;99622.41;;;5.95;78.86
46598;BME280;32318;48.858;8.252;2024-03-25T01:46:49;99623.38;;;5.94;78.70
46598;BME280;32318;48.858;8.252;2024-03-25T01:54:50;99622.56;;;5.93;78.46
46598;BME280;32318;48.858;8.252;2024-03-25T02:02:51;99618.78;;;5.96;78.66
46598;BME280;32318;48.858;8.252;2024-03-25T02:10:53;99614.47;;;5.95;78.51
46598;BME280;32318;48.858;8.252;2024-03-25T02:18:56;99599.53;;;5.94;78.03
46598;BME280;32318;48.858;8.252;2024-03-25T02:26:56;99603.84;;;5.95;78.49
46598;BME280;32318;48.858;8.252;2024-03-25T02:34:57;99599.69;;;5.92;78.30
46598;BME280;32318;48.858;8.252;2024-03-25T02:42:58;99599.81;;;5.91;78.31
46598;BME280;32318;48.858;8.252;2024-03-25T02:50:59;99597.88;;;5.93;78.14
46598;BME280;32318;48.858;8.252;2024-03-25T02:58:59;99590.09;;;5.91;78.16
46598;BME280;32318;48.858;8.252;2024-03-25T03:06:59;99586.59;;;5.91;78.35
46598;BME280;32318;48.858;8.252;2024-03-25T03:14:59;99594.53;;;5.91;78.26
46598;BME280;32318;48.858;8.252;2024-03-25T03:23:03;99588.69;;;5.87;78.25
46598;BME280;32318;48.858;8.252;2024-03-25T03:31:03;99585.06;;;5.88;78.28
46598;BME280;32318;48.858;8.252;2024-03-25T03:39:04;99593.03;;;5.88;78.12
46598;BME280;32318;48.858;8.252;2024-03-25T03:47:04;99597.63;;;5.86;78.46
46598;BME280;32318;48.858;8.252;2024-03-25T03:55:04;99596.53;;;5.89;78.31
46598;BME280;32318;48.858;8.252;2024-03-25T04:03:05;99585.91;;;5.89;78.49
46598;BME280;32318;48.858;8.252;2024-03-25T04:11:06;99592.19;;;5.88;78.46
46598;BME280;32318;48.858;8.252;2024-03-25T04:19:08;99582.59;;;5.87;78.67
46598;BME280;32318;48.858;8.252;2024-03-25T04:27:08;99590.13;;;5.81;78.73
46598;BME280;32318;48.858;8.252;2024-03-25T04:35:09;99586.81;;;5.79;78.78
46598;BME280;32318;48.858;8.252;2024-03-25T04:43:09;99588.78;;;5.77;79.30
46598;BME280;32318;48.858;8.252;2024-03-25T04:51:10;99595.34;;;5.73;79.37
46598;BME280;32318;48.858;8.252;2024-03-25T04:59:10;99594.34;;;5.74;79.70
46598;BME280;32318;48.858;8.252;2024-03-25T05:07:10;99599.97;;;5.71;79.99
46598;BME280;32318;48.858;8.252;2024-03-25T05:15:11;99601.63;;;5.72;79.35
46598;BME280;32318;48.858;8.252;2024-03-25T05:23:11;99600.78;;;5.72;79.49
46598;BME280;32318;48.858;8.252;2024-03-25T05:31:11;99599.97;;;5.71;79.71
46598;BME280;32318;48.858;8.252;2024-03-25T05:39:12;99599.28;;;5.69;79.91
46598;BME280;32318;48.858;8.252;2024-03-25T05:47:14;99596.63;;;5.69;80.15
46598;BME280;32318;48.858;8.252;2024-03-25T05:55:14;99595.78;;;5.69;80.39
46598;BME280;32318;48.858;8.252;2024-03-25T06:03:15;99601.72;;;5.80;80.31
46598;BME280;32318;48.858;8.252;2024-03-25T06:11:16;99608.22;;;6.32;78.88
46598;BME280;32318;48.858;8.252;2024-03-25T06:19:17;99608.38;;;6.75;77.32
46598;BME280;32318;48.858;8.252;2024-03-25T06:27:18;99608.44;;;6.57;77.38
46598;BME280;32318;48.858;8.252;2024-03-25T06:35:18;99615.09;;;6.43;78.09
46598;BME280;32318;48.858;8.252;2024-03-25T06:43:18;99611.78;;;6.41;78.30
46598;BME280;32318;48.858;8.252;2024-03-25T06:51:20;99608.88;;;6.52;78.04
46598;BME280;32318;48.858;8.252;2024-03-25T06:59:20;99614.38;;;6.59;77.99
46598;BME280;32318;48.858;8.252;2024-03-25T07:07:21;99609.75;;;6.79;77.39
46598;BME280;32318;48.858;8.252;2024-03-25T07:15:22;99594.13;;;7.02;76.86
46598;BME280;32318;48.858;8.252;2024-03-25T07:23:22;99585.47;;;7.27;75.03
46598;BME280;32318;48.858;8.252;2024-03-25T07:31:23;99575.31;;;7.57;74.20
46598;BME280;32318;48.858;8.252;2024-03-25T07:39:26;99576.03;;;7.83;72.79
46598;BME280;32318;48.858;8.252;2024-03-25T07:47:27;99588.88;;;8.05;70.53
46598;BME280;32318;48.858;8.252;2024-03-25T07:55:28;99574.91;;;8.11;71.41
46598;BME280;32318;48.858;8.252;2024-03-25T08:03:29;99587.22;;;8.20;72.98
46598;BME280;32318;48.858;8.252;2024-03-25T08:11:31;99582.41;;;8.24;72.01
46598;BME280;32318;48.858;8.252;2024-03-25T08:19:34;99575.41;;;8.23;71.40
46598;BME280;32318;48.858;8.252;2024-03-25T08:27:34;99565.78;;;8.13;69.90
46598;BME280;32318;48.858;8.252;2024-03-25T08:35:35;99562.94;;;8.07;67.78
46598;BME280;32318;48.858;8.252;2024-03-25T08:43:35;99546.97;;;8.15;70.21
46598;BME280;32318;48.858;8.252;2024-03-25T08:51:36;99548.66;;;8.24;67.17
46598;BME280;32318;48.858;8.252;2024-03-25T08:59:37;99549.66;;;8.40;67.81
46598;BME280;32318;48.858;8.252;2024-03-25T09:07:37;99524.91;;;8.47;67.51
46598;BME280;32318;48.858;8.252;2024-03-25T09:15:38;99507.13;;;8.56;67.88
46598;BME280;32318;48.858;8.252;2024-03-25T09:23:39;99489.28;;;8.65;66.15
46598;BME280;32318;48.858;8.252;2024-03-25T09:31:39;99475.81;;;8.75;66.38
46598;BME280;32318;48.858;8.252;2024-03-25T09:39:40;99468.56;;;8.92;65.35
46598;BME280;32318;48.858;8.252;2024-03-25T09:47:40;99453.66;;;9.14;61.94
46598;BME280;32318;48.858;8.252;2024-03-25T09:55:40;99434.69;;;9.17;60.64
46598;BME280;32318;48.858;8.252;2024-03-25T10:03:40;99430.94;;;9.35;60.03
46598;BME280;32318;48.858;8.252;2024-03-25T10:11:41;99418.31;;;9.52;58.40
46598;BME280;32318;48.858;8.252;2024-03-25T10:19:41;99405.31;;;9.57;58.16
46598;BME280;32318;48.858;8.252;2024-03-25T10:35:56;99372.66;;;9.55;55.42
46598;BME280;32318;48.858;8.252;2024-03-25T10:44:00;99352.91;;;9.87;54.17
46598;BME280;32318;48.858;8.252;2024-03-25T10:52:03;99339.97;;;10.14;53.91
46598;BME280;32318;48.858;8.252;2024-03-25T11:00:06;99327.16;;;10.10;53.44
46598;BME280;32318;48.858;8.252;2024-03-25T11:08:16;99322.75;;;10.17;53.19
46598;BME280;32318;48.858;8.252;2024-03-25T11:16:30;99299.78;;;10.82;48.67
46598;BME280;32318;48.858;8.252;2024-03-25T11:24:31;99287.16;;;10.76;50.63
46598;BME280;32318;48.858;8.252;2024-03-25T11:32:43;99264.28;;;10.89;49.29
46598;BME280;32318;48.858;8.252;2024-03-25T11:40:45;99254.88;;;10.93;49.57
46598;BME280;32318;48.858;8.252;2024-03-25T11:48:45;99221.53;;;11.10;48.18
46598;BME280;32318;48.858;8.252;2024-03-25T11:56:46;99223.78;;;11.64;46.65
46598;BME280;32318;48.858;8.252;2024-03-25T12:04:47;99206.44;;;11.53;46.87
46598;BME280;32318;48.858;8.252;2024-03-25T12:12:48;99196.03;;;11.36;48.39
46598;BME280;32318;48.858;8.252;2024-03-25T12:20:50;99167.13;;;11.46;46.51
46598;BME280;32318;48.858;8.252;2024-03-25T12:28:52;99146.25;;;11.64;45.59
46598;BME280;32318;48.858;8.252;2024-03-25T12:37:04;99130.69;;;11.74;44.88
46598;BME280;32318;48.858;8.252;2024-03-25T12:45:05;99112.97;;;11.80;45.67
46598;BME280;32318;48.858;8.252;2024-03-25T12:53:06;99098.63;;;11.87;46.61
46598;BME280;32318;48.858;8.252;2024-03-25T13:01:07;99085.75;;;12.04;44.60
46598;BME280;32318;48.858;8.252;2024-03-25T13:09:07;99063.75;;;12.36;45.00
46598;BME280;32318;48.858;8.252;2024-03-25T13:17:07;99038.03;;;12.48;43.09
46598;BME280;32318;48.858;8.252;2024-03-25T13:25:07;99017.22;;;12.44;43.44
46598;BME280;32318;48.858;8.252;2024-03-25T13:33:10;99010.22;;;12.56;43.19
46598;BME280;32318;48.858;8.252;2024-03-25T13:41:11;98991.00;;;12.93;42.45
46598;BME280;32318;48.858;8.252;2024-03-25T13:49:11;98977.81;;;12.91;40.99
46598;BME280;32318;48.858;8.252;2024-03-25T13:57:11;98958.25;;;12.84;41.38
46598;BME280;32318;48.858;8.252;2024-03-25T14:05:12;98928.94;;;13.02;40.92
46598;BME280;32318;48.858;8.252;2024-03-25T14:13:12;98917.13;;;13.17;40.49
46598;BME280;32318;48.858;8.252;2024-03-25T14:21:13;98901.69;;;13.12;40.58
46598;BME280;32318;48.858;8.252;2024-03-25T14:29:13;98879.16;;;13.20;38.66
46598;BME280;32318;48.858;8.252;2024-03-25T14:37:14;98873.06;;;13.06;39.25
46598;BME280;32318;48.858;8.252;2024-03-25T14:45:14;98847.28;;;13.05;39.85
46598;BME280;32318;48.858;8.252;2024-03-25T14:53:15;98843.03;;;13.29;39.52
46598;BME280;32318;48.858;8.252;2024-03-25T15:01:15;98835.88;;;13.23;40.09
46598;BME280;32318;48.858;8.252;2024-03-25T15:09:16;98820.97;;;13.27;39.35
46598;BME280;32318;48.858;8.252;2024-03-25T15:17:17;98812.47;;;13.37;36.87
46598;BME280;32318;48.858;8.252;2024-03-25T15:25:17;98798.78;;;13.52;38.41
46598;BME280;32318;48.858;8.252;2024-03-25T15:33:18;98789.66;;;13.53;37.21
46598;BME280;32318;48.858;8.252;2024-03-25T15:41:20;98788.34;;;13.37;37.28
46598;BME280;32318;48.858;8.252;2024-03-25T15:49:21;98771.97;;;13.20;37.75
46598;BME280;32318;48.858;8.252;2024-03-25T15:57:21;98759.69;;;13.12;37.38
46598;BME280;32318;48.858;8.252;2024-03-25T16:05:21;98745.97;;;12.95;37.95
46598;BME280;32318;48.858;8.252;2024-03-25T16:13:22;98725.88;;;12.79;37.39
46598;BME280;32318;48.858;8.252;2024-03-25T16:21:22;98718.53;;;12.68;38.29
46598;BME280;32318;48.858;8.252;2024-03-25T16:29:24;98710.56;;;12.61;38.17
46598;BME280;32318;48.858;8.252;2024-03-25T16:37:25;98705.44;;;12.53;37.54
46598;BME280;32318;48.858;8.252;2024-03-25T16:45:25;98702.00;;;12.46;39.06
46598;BME280;32318;48.858;8.252;2024-03-25T16:53:25;98696.44;;;12.40;39.57
46598;BME280;32318;48.858;8.252;2024-03-25T17:01:25;98683.75;;;12.29;39.46
46598;BME280;32318;48.858;8.252;2024-03-25T17:09:26;98685.44;;;12.17;40.45
46598;BME280;32318;48.858;8.252;2024-03-25T17:17:26;98679.25;;;12.23;40.54
46598;BME280;32318;48.858;8.252;2024-03-25T17:25:27;98669.84;;;12.14;40.07
46598;BME280;32318;48.858;8.252;2024-03-25T17:33:27;98668.44;;;11.91;40.72
46598;BME280;32318;48.858;8.252;2024-03-25T17:41:28;98672.25;;;11.63;41.51
46598;BME280;32318;48.858;8.252;2024-03-25T17:49:28;98673.72;;;11.45;42.04
46598;BME280;32318;48.858;8.252;2024-03-25T17:57:28;98661.41;;;11.24;42.89
46598;BME280;32318;48.858;8.252;2024-03-25T18:05:29;98660.00;;;11.08;42.90
46598;BME280;32318;48.858;8.252;2024-03-25T18:13:29;98655.06;;;10.72;44.24
46598;BME280;32318;48.858;8.252;2024-03-25T18:21:29;98650.94;;;10.56;44.40
46598;BME280;32318;48.858;8.252;2024-03-25T18:29:30;98653.53;;;10.29;45.55
46598;BME280;32318;48.858;8.252;2024-03-25T18:37:32;98638.91;;;10.04;47.02
46598;BME280;32318;48.858;8.252;2024-03-25T18:45:32;98630.81;;;9.84;48.52
46598;BME280;32318;48.858;8.252;2024-03-25T18:53:32;98622.41;;;9.81;47.85
46598;BME280;32318;48.858;8.252;2024-03-25T19:01:33;98608.47;;;9.79;48.19
46598;BME280;32318;48.858;8.252;2024-03-25T19:09:33;98597.47;;;9.47;48.81
46598;BME280;32318;48.858;8.252;2024-03-25T19:17:33;98596.94;;;9.30;49.13
46598;BME280;32318;48.858;8.252;2024-03-25T19:33:37;98575.50;;;9.03;49.55
46598;BME280;32318;48.858;8.252;2024-03-25T19:41:37;98559.06;;;8.92;49.90
46598;BME280;32318;48.858;8.252;2024-03-25T19:49:37;98545.88;;;8.77;50.00
46598;BME280;32318;48.858;8.252;2024-03-25T19:57:37;98536.19;;;8.70;50.10
46598;BME280;32318;48.858;8.252;2024-03-25T20:05:38;98534.31;;;8.63;49.96
46598;BME280;32318;48.858;8.252;2024-03-25T20:13:38;98524.44;;;8.57;50.21
46598;BME280;32318;48.858;8.252;2024-03-25T20:21:38;98522.03;;;8.41;51.83
46598;BME280;32318;48.858;8.252;2024-03-25T20:29:51;98509.91;;;8.31;52.56
46598;BME280;32318;48.858;8.252;2024-03-25T20:37:51;98499.63;;;8.28;51.60
46598;BME280;32318;48.858;8.252;2024-03-25T20:45:56;98502.06;;;8.23;52.87
46598;BME280;32318;48.858;8.252;2024-03-25T20:53:57;98489.13;;;8.20;53.15
46598;BME280;32318;48.858;8.252;2024-03-25T21:01:57;98486.84;;;8.17;52.73
46598;BME280;32318;48.858;8.252;2024-03-25T21:09:57;98486.19;;;8.08;53.41
46598;BME280;32318;48.858;8.252;2024-03-25T21:17:58;98471.59;;;7.97;54.01
46598;BME280;32318;48.858;8.252;2024-03-25T21:25:58;98467.13;;;7.83;54.08
46598;BME280;32318;48.858;8.252;2024-03-25T21:33:59;98472.81;;;7.58;55.52
46598;BME280;32318;48.858;8.252;2024-03-25T21:41:59;98474.97;;;7.48;55.41
46598;BME280;32318;48.858;8.252;2024-03-25T21:50:00;98469.97;;;7.38;55.24
46598;BME280;32318;48.858;8.252;2024-03-25T21:58:00;98462.03;;;7.23;55.12
46598;BME280;32318;48.858;8.252;2024-03-25T22:06:00;98448.78;;;7.08;56.67
46598;BME280;32318;48.858;8.252;2024-03-25T22:14:01;98443.03;;;7.04;55.60
46598;BME280;32318;48.858;8.252;2024-03-25T22:22:01;98435.91;;;7.05;56.07
46598;BME280;32318;48.858;8.252;2024-03-25T22:30:02;98430.97;;;7.02;54.83
46598;BME280;32318;48.858;8.252;2024-03-25T22:38:02;98435.81;;;6.98;55.11
46598;BME280;32318;48.858;8.252;2024-03-25T22:46:02;98418.16;;;6.90;56.24
46598;BME280;32318;48.858;8.252;2024-03-25T22:54:03;98427.59;;;6.93;54.39
46598;BME280;32318;48.858;8.252;2024-03-25T23:02:04;98421.34;;;7.01;54.38
46598;BME280;32318;48.858;8.252;2024-03-25T23:10:04;98417.22;;;7.13;54.00
46598;BME280;32318;48.858;8.252;2024-03-25T23:18:07;98406.53;;;7.06;55.54
46598;BME280;32318;48.858;8.252;2024-03-25T23:26:10;98391.72;;;6.97;55.03
46598;BME280;32318;48.858;8.252;2024-03-25T23:34:11;98389.19;;;6.89;55.61
46598;BME280;32318;48.858;8.252;2024-03-25T23:42:12;98387.81;;;6.93;55.18
46598;BME280;32318;48.858;8.252;2024-03-25T23:50:12;98378.25;;;6.99;55.74
46598;BME280;32318;48.858;8.252;2024-03-25T23:58:13;98384.72;;;7.11;54.66
